Régionale sprint 1 organisée par les jeunes du TAD Douai (59) - Orange D

Date : 11/09/2022
Couleur : Orange
Valeur du circuit : 6608896 point × seconde

Place Nom Licence Catégorie Club Temps CN à J-15 Valeur Points Différence Nouveau CN
1 DUQUENNE Audrey 23885 D21 5907HF 0:22:26 5923 7972358 4910 -1013 5923
2 AHOND Louise 36997 D20 5907HF 0:22:51 4548 6235308 4820 +272 4781
3 LABARRE Maria 29467 D21 6205HF 0:23:10 6239 8672210 4755 -1484 6216
4 CLABAUX Norah 35145 D16 6208HF 0:23:53 4245 6083085 4612 +367 4358
5 FLORENT Roxane 26927 D21 5907HF 0:23:55 5582 8010170 4606 -976 5605
6 KARAMUCKI Elsa 39704 D35 5906HF 0:24:01 4595 6621395 4586 -9 4657
7 DINGREVILLE Marie 39322 D40 5906HF 0:24:10 4669 6770050 4558 -111 4637
8 KERMEZLI Nesrine 38043 D20 5907HF 0:24:28 5057 7423676 4502 -555 4999
9 LABROCHE Claire 26570 D21 0207HF 0:24:56 5284 7904864 4418 -866 5284
10 JOLLY-JANSSON Sonia 27719 D16 7807IF 0:25:35 4752 7294320 4305 -447 4833
11 DESRUMAUX Marie 14227 D45 5906HF 0:26:08 5392 8454656 4215 -1177 5356
12 HAGARD Virginie 7048 D40 5907HF 0:26:14 2552 4016848 4199 +1698 2711
13 JOLLY-JANSSON Mélissa 23167 D18 7807IF 0:27:06 5357 8710482 4065 -1292 5357
14 CLABAUX Emma 37103 D14 6208HF 0:27:19 2080 3409120 4032 +1952 2209
15 VERNEAU Anna 38381 D16 6208HF 0:27:28 3652 6018496 4010 +358 3691
16 GRESSET-BOURGEOIS Mathilde 26666 D35 5907HF 0:27:44 5476 9112064 3972 -1504 5412
17 FLANDRIN Sasha 24399 D16 6208HF 0:28:04 3949 6650116 3925 -24 3994
18 LEFEBVRE Cécile 39926 D45 5906HF 0:30:39 0 3594 1792
19 BRETON Christelle 41357 D21 5906HF 0:31:02 3047 5673514 3549 +502 3236
20 DECARPIGNY Gwladys 6995 D40 5907HF 0:31:10 4132 7726840 3534 -433 3983
21 LANDRY Pauline 30414 D21 6203HF 0:31:22 3841 7228762 3512 -329 3841
22 SENCE Romane 29055 D16 5906HF 0:31:46 4130 7871780 3467 -663 4130
23 FRANCOISE Charlotte 32331 D21 5906HF 0:31:54 3499 6697086 3453 +94 3406
24 BAUDSON Clémentine 33267 D16 5906HF 0:32:35 3199 6254045 3381 +182 3245
25 DESTREZ Lise 35438 D35 0207HF 0:32:50 3122 6150340 3355 +233 3208
26 BERTOUT Olivia 36156 D40 5906HF 0:32:55 3535 3346 -189 3535
27 DUBREUCQ Perrine 25471 D21 5906HF 0:34:06 0 3230 2985
28 MARCHER-TASSIN Elodie 7852 D45 1705NA 0:35:15 4417 3125 -1292 4344
29 ARMAING Céline 30617 D50 5906HF 0:35:24 3176 3112 -64 3187
30 FRUCHART Léa 39000 D21 5907HF 0:36:14 3195 3040 -155 3272
31 DUBOIS Salomé 37965 D18 5906HF 0:36:59 2145 2978 +833 2233
32 SENCE Marie-Pierre 29897 D45 5906HF 0:37:21 3704 2949 -755 3687
33 SILVIE ELEONORE 42078 D14 6208HF 0:37:52 1400 2909 +1509 1582
34 BOULANGER Isabelle 10639 D65 5907HF 0:39:13 3620 2809 -811 3620
35 VIGNAL Audrey 41407 D35 5907HF 0:41:46 2637 0
36 BAUDSON Claire 35129 D40 5906HF 0:43:17 2929 2545 -384 2929
37 BAUD Sandrine 27612 D45 6203HF 0:47:06 2715 2339 -376 2715
38 DEWILDE Lydie 40654 D40 5907HF 0:48:19 1595 2280 +685 1973
MERCIER Agnès 23079 D40 5907HF disqualifié 6154 0 6217